createdAt,value
2018-11-12T00:00:11.696Z,88.98
2018-11-12T00:01:11.739Z,89.02
2018-11-12T00:02:11.777Z,88.98
2018-11-12T00:03:11.818Z,88.78
2018-11-12T00:04:11.858Z,88.88
2018-11-12T00:05:11.899Z,88.78
2018-11-12T00:06:11.938Z,88.69
2018-11-12T00:07:11.979Z,89.07
2018-11-12T00:08:12.020Z,89.07
2018-11-12T00:09:12.147Z,88.98
2018-11-12T00:10:12.104Z,88.40
2018-11-12T00:11:12.141Z,88.69
2018-11-12T00:12:12.186Z,88.59
2018-11-12T00:13:12.226Z,88.59
2018-11-12T00:14:12.257Z,88.88
2018-11-12T00:15:12.297Z,88.21
2018-11-12T00:16:12.339Z,88.50
2018-11-12T00:17:12.382Z,88.78
2018-11-12T00:18:12.417Z,88.50
2018-11-12T00:19:12.458Z,88.59
2018-11-12T00:20:12.498Z,88.40
2018-11-12T00:21:12.537Z,88.78
2018-11-12T00:22:12.577Z,88.02
2018-11-12T00:23:12.617Z,88.12
2018-11-12T00:24:12.658Z,88.21
2018-11-12T00:25:12.699Z,88.40
2018-11-12T00:26:12.745Z,88.50
2018-11-12T00:27:12.779Z,88.69
2018-11-12T00:28:12.819Z,87.93
2018-11-12T00:29:12.860Z,88.02
2018-11-12T00:30:12.897Z,88.02
2018-11-12T00:31:12.936Z,87.64
2018-11-12T00:32:12.978Z,87.64
2018-11-12T00:33:13.017Z,87.74
2018-11-12T00:34:13.058Z,87.64
2018-11-12T00:35:13.098Z,88.02
2018-11-12T00:36:13.139Z,87.74
2018-11-12T00:37:13.178Z,88.12
2018-11-12T00:38:13.230Z,87.93
2018-11-12T00:39:13.264Z,87.35
2018-11-12T00:40:13.311Z,87.35
2018-11-12T00:41:13.348Z,87.54
2018-11-12T00:42:13.376Z,88.12
2018-11-12T00:43:13.421Z,87.35
2018-11-12T00:44:13.456Z,87.54
2018-11-12T00:45:13.496Z,87.21
2018-11-12T00:46:13.536Z,87.54
2018-11-12T00:47:13.608Z,87.50
2018-11-12T00:48:13.616Z,87.21
2018-11-12T00:49:13.657Z,87.21
2018-11-12T00:50:13.702Z,87.60
2018-11-12T00:51:13.735Z,87.50
2018-11-12T00:52:13.775Z,87.50
2018-11-12T00:53:13.821Z,87.31
2018-11-12T00:54:13.854Z,87.40
2018-11-12T00:55:13.907Z,87.31
2018-11-12T00:56:13.946Z,87.31
2018-11-12T00:57:13.988Z,87.31
2018-11-12T00:58:14.013Z,87.21
2018-11-12T00:59:14.053Z,87.79
2018-11-12T01:00:14.094Z,87.50
2018-11-12T01:01:14.136Z,87.21
2018-11-12T01:02:14.174Z,87.02
2018-11-12T01:03:14.212Z,87.12
2018-11-12T01:04:14.374Z,87.02
2018-11-12T01:05:14.296Z,87.12
2018-11-12T01:06:14.332Z,86.74
2018-11-12T01:07:14.371Z,87.12
2018-11-12T01:08:14.413Z,86.65
2018-11-12T01:09:14.456Z,86.74
2018-11-12T01:10:14.490Z,86.74
2018-11-12T01:11:14.531Z,86.36
2018-11-12T01:12:14.569Z,86.74
2018-11-12T01:13:14.608Z,86.74
2018-11-12T01:14:14.647Z,86.93
2018-11-12T01:15:14.690Z,86.65
2018-11-12T01:16:14.759Z,85.78
2018-11-12T01:17:14.766Z,86.36
2018-11-12T01:18:15.193Z,85.69
2018-11-12T01:19:14.847Z,85.97
2018-11-12T01:20:14.885Z,85.50
2018-11-12T01:21:14.985Z,85.97
2018-11-12T01:22:14.968Z,85.60
2018-11-12T01:23:15.236Z,85.60
2018-11-12T01:24:15.045Z,85.69
2018-11-12T01:25:15.086Z,85.41
2018-11-12T01:26:15.126Z,85.21
2018-11-12T01:27:15.163Z,85.12
2018-11-12T01:28:15.201Z,85.12
2018-11-12T01:29:15.244Z,85.12
2018-11-12T01:30:15.283Z,85.31
2018-11-12T01:31:15.323Z,85.41
2018-11-12T01:32:15.369Z,85.31
2018-11-12T01:33:15.401Z,85.31
2018-11-12T01:34:15.441Z,85.12
2018-11-12T01:35:15.486Z,85.12
2018-11-12T01:36:15.520Z,84.74
2018-11-12T01:37:15.559Z,84.45
2018-11-12T01:38:15.598Z,84.64
2018-11-12T01:39:15.645Z,84.83
2018-11-12T01:40:15.681Z,84.64
2018-11-12T01:41:15.717Z,84.26
2018-11-12T01:42:15.765Z,84.45
2018-11-12T01:43:15.797Z,84.74
2018-11-12T01:44:15.835Z,83.88
2018-11-12T01:45:15.883Z,84.16
2018-11-12T01:46:15.915Z,84.45
2018-11-12T01:47:15.955Z,83.88
2018-11-12T01:48:15.994Z,83.54
2018-11-12T01:49:16.038Z,83.69
2018-11-12T01:50:16.077Z,83.73
2018-11-12T01:51:16.114Z,84.07
2018-11-12T01:52:16.151Z,83.92
2018-11-12T01:53:16.194Z,84.16
2018-11-12T01:54:16.232Z,83.31
2018-11-12T01:55:16.271Z,83.16
2018-11-12T01:56:16.312Z,83.40
2018-11-12T01:57:16.358Z,83.12
2018-11-12T01:58:16.390Z,83.31
2018-11-12T01:59:16.432Z,83.31
2018-11-12T02:00:16.472Z,83.31
2018-11-12T02:01:16.509Z,83.31
2018-11-12T02:02:16.584Z,83.69
2018-11-12T02:03:16.591Z,83.50
2018-11-12T02:04:16.629Z,83.12
2018-11-12T02:05:16.669Z,83.21
2018-11-12T02:06:16.712Z,83.21
2018-11-12T02:07:16.754Z,83.21
2018-11-12T02:08:16.789Z,83.02
2018-11-12T02:09:16.829Z,82.73
2018-11-12T02:10:16.898Z,82.92
2018-11-12T02:11:16.909Z,83.12
2018-11-12T02:12:16.950Z,83.02
2018-11-12T02:13:17.057Z,82.92
2018-11-12T02:14:17.029Z,83.02
2018-11-12T02:15:17.063Z,83.21
2018-11-12T02:16:17.105Z,83.02
2018-11-12T02:17:17.144Z,82.83
2018-11-12T02:18:17.184Z,82.73
2018-11-12T02:19:17.224Z,82.54
2018-11-12T02:20:17.262Z,82.35
2018-11-12T02:21:17.310Z,83.02
2018-11-12T02:22:17.342Z,82.45
2018-11-12T02:23:17.381Z,82.64
2018-11-12T02:24:17.426Z,82.83
2018-11-12T02:25:17.462Z,82.73
2018-11-12T02:26:17.520Z,82.35
2018-11-12T02:27:17.546Z,82.45
2018-11-12T02:28:17.579Z,82.73
2018-11-12T02:29:17.619Z,82.26
2018-11-12T02:30:17.661Z,82.07
2018-11-12T02:31:17.709Z,82.17
2018-11-12T02:32:17.738Z,82.17
2018-11-12T02:33:17.871Z,82.17
2018-11-12T02:34:17.818Z,82.45
2018-11-12T02:35:17.858Z,82.17
2018-11-12T02:36:17.899Z,82.26
2018-11-12T02:37:17.938Z,82.45
2018-11-12T02:38:17.978Z,81.88
2018-11-12T02:39:18.016Z,81.78
2018-11-12T02:40:18.057Z,81.59
2018-11-12T02:41:18.097Z,81.88
2018-11-12T02:42:18.137Z,81.97
2018-11-12T02:43:18.180Z,81.97
2018-11-12T02:44:18.215Z,81.88
2018-11-12T02:45:18.255Z,81.88
2018-11-12T02:46:18.293Z,81.97
2018-11-12T02:47:18.333Z,82.17
2018-11-12T02:48:18.373Z,82.07
2018-11-12T02:49:18.413Z,82.17
2018-11-12T02:50:18.451Z,81.88
2018-11-12T02:51:18.491Z,82.07
2018-11-12T02:52:18.530Z,81.88
2018-11-12T02:53:18.572Z,81.59
2018-11-12T02:54:18.611Z,81.30
2018-11-12T02:55:18.652Z,81.59
2018-11-12T02:56:18.696Z,81.68
2018-11-12T02:57:18.764Z,81.78
2018-11-12T02:58:18.769Z,81.78
2018-11-12T02:59:18.809Z,81.46
2018-11-12T03:00:18.851Z,81.59
2018-11-12T03:01:18.941Z,81.59
2018-11-12T03:02:18.931Z,81.59
2018-11-12T03:03:18.966Z,81.26
2018-11-12T03:04:19.023Z,81.49
2018-11-12T03:05:19.055Z,81.30
2018-11-12T03:06:19.186Z,81.49
2018-11-12T03:07:19.145Z,81.59
2018-11-12T03:08:19.165Z,81.12
2018-11-12T03:09:19.206Z,81.49
2018-11-12T03:10:19.242Z,81.59
2018-11-12T03:11:19.283Z,81.17
2018-11-12T03:12:19.323Z,80.92
2018-11-12T03:13:19.362Z,80.83
2018-11-12T03:14:19.411Z,80.83
2018-11-12T03:15:19.440Z,81.02
2018-11-12T03:16:19.480Z,80.73
2018-11-12T03:17:19.521Z,80.26
2018-11-12T03:18:19.558Z,80.54
2018-11-12T03:19:19.606Z,80.64
2018-11-12T03:20:19.640Z,80.44
2018-11-12T03:21:19.677Z,80.54
2018-11-12T03:22:19.717Z,80.54
2018-11-12T03:23:19.757Z,80.64
2018-11-12T03:24:19.798Z,80.44
2018-11-12T03:25:19.835Z,80.07
2018-11-12T03:26:19.878Z,80.07
2018-11-12T03:27:19.914Z,80.16
2018-11-12T03:28:19.953Z,80.44
2018-11-12T03:29:19.994Z,80.35
2018-11-12T03:30:20.032Z,80.16
2018-11-12T03:31:20.078Z,80.44
2018-11-12T03:32:20.115Z,79.97
2018-11-12T03:33:20.155Z,79.97
2018-11-12T03:34:20.192Z,79.97
2018-11-12T03:35:20.234Z,79.78
2018-11-12T03:36:20.273Z,80.26
2018-11-12T03:37:20.312Z,80.35
2018-11-12T03:38:20.350Z,79.97
2018-11-12T03:39:20.391Z,80.07
2018-11-12T03:40:20.430Z,79.68
2018-11-12T03:41:20.469Z,79.78
2018-11-12T03:42:20.515Z,79.78
2018-11-12T03:43:20.546Z,79.49
2018-11-12T03:44:20.588Z,79.59
2018-11-12T03:45:20.630Z,79.59
2018-11-12T03:46:20.667Z,79.78
2018-11-12T03:47:20.705Z,79.88
2018-11-12T03:48:20.756Z,79.64
2018-11-12T03:49:20.788Z,79.49
2018-11-12T03:50:20.824Z,79.59
2018-11-12T03:51:20.864Z,79.78
2018-11-12T03:52:20.902Z,79.21
2018-11-12T03:53:20.946Z,79.78
2018-11-12T03:54:20.983Z,79.78
2018-11-12T03:55:21.030Z,79.21
2018-11-12T03:56:21.062Z,79.30
2018-11-12T03:57:21.103Z,79.21
2018-11-12T03:58:21.147Z,79.27
2018-11-12T03:59:21.183Z,79.17
2018-11-12T04:00:21.332Z,79.36
2018-11-12T04:01:21.265Z,79.30
2018-11-12T04:02:21.299Z,79.68
2018-11-12T04:03:21.340Z,79.27
2018-11-12T04:04:21.380Z,79.11
2018-11-12T04:05:21.419Z,79.11
2018-11-12T04:06:21.458Z,79.21
2018-11-12T04:07:21.501Z,79.30
2018-11-12T04:08:21.539Z,78.92
2018-11-12T04:09:21.577Z,79.02
2018-11-12T04:10:21.621Z,79.02
2018-11-12T04:11:21.658Z,79.11
2018-11-12T04:12:21.695Z,79.02
2018-11-12T04:13:21.735Z,78.83
2018-11-12T04:14:21.774Z,78.64
2018-11-12T04:15:21.825Z,78.59
2018-11-12T04:16:21.855Z,78.92
2018-11-12T04:17:21.894Z,79.07
2018-11-12T04:18:21.932Z,79.07
2018-11-12T04:19:21.970Z,79.07
2018-11-12T04:20:22.012Z,78.98
2018-11-12T04:21:22.052Z,79.55
2018-11-12T04:22:22.090Z,78.88
2018-11-12T04:23:22.130Z,79.55
2018-11-12T04:24:22.170Z,79.36
2018-11-12T04:25:22.210Z,78.98
2018-11-12T04:26:22.250Z,78.98
2018-11-12T04:27:22.288Z,79.36
2018-11-12T04:28:22.328Z,79.36
2018-11-12T04:29:22.372Z,79.17
2018-11-12T04:30:22.407Z,79.27
2018-11-12T04:31:22.446Z,79.07
2018-11-12T04:32:22.489Z,79.27
2018-11-12T04:33:22.626Z,79.74
2018-11-12T04:34:22.573Z,79.64
2018-11-12T04:35:22.603Z,79.36
2018-11-12T04:36:22.642Z,79.27
2018-11-12T04:37:22.686Z,79.27
2018-11-12T04:38:22.723Z,78.88
2018-11-12T04:39:22.762Z,78.88
2018-11-12T04:40:22.800Z,79.07
2018-11-12T04:41:22.842Z,79.07
2018-11-12T04:42:22.879Z,78.22
2018-11-12T04:43:22.919Z,78.12
2018-11-12T04:44:22.958Z,78.31
2018-11-12T04:45:23.041Z,78.50
2018-11-12T04:46:23.038Z,78.41
2018-11-12T04:47:23.077Z,78.22
2018-11-12T04:48:23.118Z,78.12
2018-11-12T04:49:23.157Z,78.03
2018-11-12T04:50:23.194Z,77.93
2018-11-12T04:51:23.234Z,78.22
2018-11-12T04:52:23.272Z,78.22
2018-11-12T04:53:23.363Z,78.03
2018-11-12T04:54:23.351Z,77.93
2018-11-12T04:55:23.424Z,78.12
2018-11-12T04:56:23.433Z,78.31
2018-11-12T04:57:23.472Z,78.22
2018-11-12T04:58:23.509Z,77.74
2018-11-12T04:59:23.549Z,77.83
2018-11-12T05:00:23.589Z,78.22
2018-11-12T05:01:23.634Z,77.74
2018-11-12T05:02:23.668Z,78.03
2018-11-12T05:03:23.707Z,77.74
2018-11-12T05:04:23.748Z,77.64
2018-11-12T05:05:23.786Z,77.93
2018-11-12T05:06:23.824Z,77.74
2018-11-12T05:07:23.919Z,77.74
2018-11-12T05:08:23.904Z,77.93
2018-11-12T05:09:23.944Z,78.03
2018-11-12T05:10:23.990Z,77.83
2018-11-12T05:11:24.024Z,78.03
2018-11-12T05:12:24.060Z,77.74
2018-11-12T05:13:24.099Z,77.93
2018-11-12T05:14:24.137Z,78.12
2018-11-12T05:15:24.182Z,77.64
2018-11-12T05:16:24.225Z,77.17
2018-11-12T05:17:24.260Z,77.36
2018-11-12T05:18:24.295Z,77.55
2018-11-12T05:19:24.334Z,77.55
2018-11-12T05:20:24.432Z,77.55
2018-11-12T05:21:24.414Z,77.83
2018-11-12T05:22:24.455Z,77.26
2018-11-12T05:23:24.495Z,77.26
2018-11-12T05:24:24.530Z,77.26
2018-11-12T05:25:24.572Z,77.36
2018-11-12T05:26:24.608Z,77.26
2018-11-12T05:27:24.648Z,77.36
2018-11-12T05:28:24.688Z,77.36
2018-11-12T05:29:24.727Z,77.17
2018-11-12T05:30:24.767Z,76.69
2018-11-12T05:31:24.806Z,77.36
2018-11-12T05:32:24.844Z,76.79
2018-11-12T05:33:24.884Z,76.98
2018-11-12T05:34:24.928Z,77.17
2018-11-12T05:35:24.965Z,77.55
2018-11-12T05:36:25.002Z,77.55
2018-11-12T05:37:25.043Z,77.55
2018-11-12T05:38:25.175Z,76.88
2018-11-12T05:39:25.128Z,77.45
2018-11-12T05:40:25.161Z,76.98
2018-11-12T05:41:25.198Z,77.45
2018-11-12T05:42:25.245Z,77.45
2018-11-12T05:43:25.279Z,76.98
2018-11-12T05:44:25.318Z,76.79
2018-11-12T05:45:25.358Z,76.69
2018-11-12T05:46:25.394Z,76.79
2018-11-12T05:47:25.435Z,76.69
2018-11-12T05:48:25.473Z,76.88
2018-11-12T05:49:25.514Z,76.79
2018-11-12T05:50:25.551Z,76.88
2018-11-12T05:51:25.688Z,76.88
2018-11-12T05:52:25.630Z,76.50
2018-11-12T05:53:25.675Z,76.31
2018-11-12T05:54:25.713Z,76.31
2018-11-12T05:55:25.751Z,76.03
2018-11-12T05:56:25.789Z,76.12
2018-11-12T05:57:25.830Z,75.93
2018-11-12T05:58:25.866Z,75.74
2018-11-12T05:59:25.915Z,76.03
2018-11-12T06:00:25.953Z,75.74
2018-11-12T06:01:25.986Z,76.06
2018-11-12T06:02:26.031Z,75.87
2018-11-12T06:03:26.070Z,75.45
2018-11-12T06:04:26.114Z,75.55
2018-11-12T06:05:26.144Z,75.20
2018-11-12T06:06:26.190Z,75.45
2018-11-12T06:07:26.228Z,75.20
2018-11-12T06:08:26.261Z,75.36
2018-11-12T06:09:26.309Z,75.49
2018-11-12T06:10:26.343Z,75.59
2018-11-12T06:11:26.388Z,75.20
2018-11-12T06:12:26.426Z,75.26
2018-11-12T06:13:26.466Z,75.40
2018-11-12T06:14:26.511Z,75.30
2018-11-12T06:15:26.539Z,75.20
2018-11-12T06:16:26.581Z,75.01
2018-11-12T06:17:26.620Z,74.82
2018-11-12T06:18:26.658Z,74.92
2018-11-12T06:19:26.697Z,74.92
2018-11-12T06:20:27.084Z,74.92
2018-11-12T06:21:26.777Z,75.20
2018-11-12T06:22:26.828Z,75.20
2018-11-12T06:23:26.855Z,74.82
2018-11-12T06:24:26.896Z,74.92
2018-11-12T06:25:26.936Z,75.11
2018-11-12T06:26:26.973Z,74.44
2018-11-12T06:27:27.012Z,74.92
2018-11-12T06:28:27.053Z,74.73
2018-11-12T06:29:27.098Z,74.35
2018-11-12T06:30:27.131Z,74.54
2018-11-12T06:31:27.171Z,74.54
2018-11-12T06:32:27.217Z,74.73
2018-11-12T06:33:27.252Z,74.63
2018-11-12T06:34:27.291Z,74.54
2018-11-12T06:35:27.335Z,74.63
2018-11-12T06:36:27.381Z,74.73
2018-11-12T06:37:27.413Z,74.54
2018-11-12T06:38:27.450Z,74.44
2018-11-12T06:39:27.597Z,74.44
2018-11-12T06:40:27.538Z,74.16
2018-11-12T06:41:27.571Z,74.25
2018-11-12T06:42:27.681Z,74.54
2018-11-12T06:43:27.653Z,74.44
2018-11-12T06:44:27.688Z,74.73
2018-11-12T06:45:27.731Z,74.54
2018-11-12T06:46:27.767Z,74.54
2018-11-12T06:47:27.812Z,74.16
2018-11-12T06:48:27.848Z,74.16
2018-11-12T06:49:27.894Z,74.19
2018-11-12T06:50:27.926Z,74.16
2018-11-12T06:51:27.967Z,74.73
2018-11-12T06:52:28.005Z,74.44
2018-11-12T06:53:28.109Z,74.35
2018-11-12T06:54:28.086Z,74.25
2018-11-12T06:55:28.125Z,74.54
2018-11-12T06:56:28.165Z,74.67
2018-11-12T06:57:28.205Z,74.38
2018-11-12T06:58:28.245Z,74.48
2018-11-12T06:59:28.286Z,74.35
2018-11-12T07:00:28.327Z,74.35
2018-11-12T07:01:28.365Z,74.57
2018-11-12T07:02:28.403Z,74.67
2018-11-12T07:03:28.444Z,74.48
2018-11-12T07:04:28.484Z,74.67
2018-11-12T07:05:28.523Z,74.29
2018-11-12T07:06:28.654Z,74.29
2018-11-12T07:07:28.604Z,74.38
2018-11-12T07:08:28.652Z,74.57
2018-11-12T07:09:28.688Z,75.15
2018-11-12T07:10:28.731Z,75.34
2018-11-12T07:11:28.768Z,75.43
2018-11-12T07:12:28.805Z,75.62
2018-11-12T07:13:28.851Z,75.72
2018-11-12T07:14:28.883Z,75.15
2018-11-12T07:15:28.927Z,74.96
2018-11-12T07:16:28.963Z,75.24
2018-11-12T07:17:29.009Z,75.05
2018-11-12T07:18:29.043Z,74.77
2018-11-12T07:19:29.083Z,75.24
2018-11-12T07:20:29.123Z,74.77
2018-11-12T07:21:29.166Z,75.15
2018-11-12T07:22:29.200Z,75.24
2018-11-12T07:23:29.241Z,75.62
2018-11-12T07:24:29.280Z,75.53
2018-11-12T07:25:29.327Z,75.34
2018-11-12T07:26:29.367Z,75.15
2018-11-12T07:27:29.408Z,75.24
2018-11-12T07:28:29.442Z,75.15
2018-11-12T07:29:29.481Z,75.72
2018-11-12T07:30:29.526Z,75.34
2018-11-12T07:31:29.561Z,75.62
2018-11-12T07:32:29.611Z,75.05
2018-11-12T07:33:29.644Z,74.96
2018-11-12T07:34:29.693Z,74.80
2018-11-12T07:35:29.722Z,74.57
2018-11-12T07:36:29.765Z,74.71
2018-11-12T07:37:29.804Z,74.80
2018-11-12T07:38:29.840Z,74.77
2018-11-12T07:39:29.886Z,74.80
2018-11-12T07:40:29.926Z,75.18
2018-11-12T07:41:29.976Z,75.37
2018-11-12T07:42:30.004Z,76.04
2018-11-12T07:43:30.047Z,76.14
2018-11-12T07:44:30.084Z,76.81
2018-11-12T07:45:30.124Z,76.33
2018-11-12T07:46:30.165Z,77.47
2018-11-12T07:47:30.215Z,77.38
2018-11-12T07:48:30.247Z,77.38
2018-11-12T07:49:30.302Z,77.57
2018-11-12T07:50:30.374Z,76.81
2018-11-12T07:51:30.499Z,76.81
2018-11-12T07:52:30.406Z,77.00
2018-11-12T07:53:30.451Z,76.90
2018-11-12T07:54:30.487Z,77.28
2018-11-12T07:55:30.526Z,77.00
2018-11-12T07:56:30.744Z,77.67
2018-11-12T07:57:30.609Z,77.86
2018-11-12T07:58:30.649Z,78.14
2018-11-12T07:59:30.689Z,78.91
2018-11-12T08:00:30.731Z,79.28
2018-11-12T08:01:30.771Z,79.10
2018-11-12T08:02:30.811Z,79.10
2018-11-12T08:03:30.865Z,79.86
2018-11-12T08:04:30.891Z,79.48
2018-11-12T08:05:30.937Z,79.38
2018-11-12T08:06:30.980Z,79.00
2018-11-12T08:07:31.012Z,79.10
2018-11-12T08:08:31.054Z,79.14
2018-11-12T08:09:31.127Z,79.28
2018-11-12T08:10:31.139Z,80.43
2018-11-12T08:11:31.192Z,80.91
2018-11-12T08:12:31.214Z,80.81
2018-11-12T08:13:31.258Z,80.43
2018-11-12T08:14:31.338Z,79.48
2018-11-12T08:15:31.344Z,79.10
2018-11-12T08:16:31.384Z,78.81
2018-11-12T08:17:32.029Z,78.33
2018-11-12T08:18:31.458Z,78.23
2018-11-12T08:19:31.497Z,78.14
2018-11-12T08:20:31.542Z,78.37
2018-11-12T08:21:31.604Z,77.70
2018-11-12T08:22:31.624Z,77.42
2018-11-12T08:23:31.663Z,77.51
2018-11-12T08:24:31.740Z,77.51
2018-11-12T08:25:31.740Z,76.84
2018-11-12T08:26:31.780Z,76.90
2018-11-12T08:27:31.922Z,77.32
2018-11-12T08:28:31.873Z,77.51
2018-11-12T08:29:31.928Z,77.80
2018-11-12T08:30:32.009Z,78.09
2018-11-12T08:31:31.983Z,77.99
2018-11-12T08:32:32.026Z,78.66
2018-11-12T08:33:32.066Z,78.94
2018-11-12T08:34:32.104Z,78.28
2018-11-12T08:35:32.149Z,78.09
2018-11-12T08:36:32.209Z,78.18
2018-11-12T08:37:32.229Z,77.61
2018-11-12T08:38:32.268Z,77.89
2018-11-12T08:39:32.441Z,77.42
2018-11-12T08:40:32.489Z,77.23
2018-11-12T08:41:32.391Z,76.94
2018-11-12T08:42:32.431Z,77.89
2018-11-12T08:43:32.475Z,77.70
2018-11-12T08:44:32.510Z,78.94
2018-11-12T08:45:32.559Z,79.04
2018-11-12T08:46:32.597Z,79.14
2018-11-12T08:47:32.640Z,78.85
2018-11-12T08:48:32.786Z,78.47
2018-11-12T08:49:32.937Z,78.28
2018-11-12T08:50:32.756Z,78.66
2018-11-12T08:51:32.798Z,78.18
2018-11-12T08:52:32.840Z,78.18
2018-11-12T08:53:32.878Z,79.33
2018-11-12T08:54:32.985Z,78.47
2018-11-12T08:55:32.983Z,78.56
2018-11-12T08:56:33.002Z,78.37
2018-11-12T08:57:33.043Z,78.94
2018-11-12T08:58:33.088Z,78.09
2018-11-12T08:59:33.214Z,77.42
2018-11-12T09:00:33.285Z,77.42
2018-11-12T09:01:33.206Z,77.23
2018-11-12T09:02:33.245Z,77.99
2018-11-12T09:03:33.287Z,78.66
2018-11-12T09:04:33.328Z,78.47
2018-11-12T09:05:33.629Z,78.85
2018-11-12T09:06:33.561Z,79.14
2018-11-12T09:07:33.452Z,78.89
2018-11-12T09:08:33.617Z,80.32
2018-11-12T09:09:33.564Z,80.32
2018-11-12T09:10:33.574Z,79.56
2018-11-12T09:11:33.625Z,79.17
2018-11-12T09:12:33.658Z,78.51
2018-11-12T09:13:33.998Z,78.31
2018-11-12T09:14:33.737Z,79.56
2018-11-12T09:15:33.817Z,79.46
2018-11-12T09:16:33.820Z,80.04
2018-11-12T09:17:33.905Z,80.41
2018-11-12T09:18:33.902Z,80.41
2018-11-12T09:19:33.943Z,79.56
2018-11-12T09:20:33.985Z,79.17
2018-11-12T09:21:34.023Z,79.46
2018-11-12T09:22:34.064Z,78.89
2018-11-12T09:23:34.105Z,78.99
2018-11-12T09:24:34.155Z,78.41
2018-11-12T09:25:34.190Z,78.70
2018-11-12T09:26:34.234Z,79.56
2018-11-12T09:27:34.270Z,79.08
2018-11-12T09:28:34.311Z,79.56
2018-11-12T09:29:34.386Z,80.04
2018-11-12T09:30:34.393Z,79.46
2018-11-12T09:31:34.721Z,79.27
2018-11-12T09:32:34.476Z,79.36
2018-11-12T09:33:34.567Z,78.99
2018-11-12T09:34:34.585Z,78.22
2018-11-12T09:35:34.600Z,78.70
2018-11-12T09:36:34.717Z,79.36
2018-11-12T09:38:34.812Z,80.27
2018-11-12T09:39:34.765Z,81.99
2018-11-12T09:40:34.827Z,80.93
2018-11-12T09:41:34.879Z,81.99
2018-11-12T09:42:34.889Z,81.79
2018-11-12T09:43:34.930Z,83.42
2018-11-12T09:44:34.980Z,83.42
2018-11-12T09:45:35.012Z,83.70
2018-11-12T09:46:35.054Z,84.85
2018-11-12T09:47:35.159Z,83.33
2018-11-12T09:48:35.135Z,83.42
2018-11-12T09:49:35.318Z,84.66
2018-11-12T09:50:35.229Z,83.42
2018-11-12T09:51:35.261Z,85.33
2018-11-12T09:52:35.311Z,86.47
2018-11-12T09:53:35.383Z,86.67
2018-11-12T09:54:35.623Z,86.29
2018-11-12T09:55:35.456Z,87.15
2018-11-12T09:56:35.471Z,86.96
2018-11-12T09:57:35.510Z,86.19
2018-11-12T09:58:35.554Z,86.23
2018-11-12T09:59:35.597Z,87.48
2018-11-12T10:00:35.866Z,87.00
2018-11-12T10:01:36.236Z,86.80
2018-11-12T10:02:37.022Z,87.29
2018-11-12T10:03:37.399Z,86.71
2018-11-12T10:04:36.768Z,87.57
2018-11-12T10:05:37.296Z,87.09
2018-11-12T10:06:37.341Z,86.14
2018-11-12T10:07:38.331Z,86.52
2018-11-12T10:08:37.780Z,86.80
2018-11-12T10:09:37.892Z,87.09
2018-11-12T10:10:38.744Z,87.57
2018-11-12T10:11:38.782Z,86.33
2018-11-12T10:12:38.531Z,85.94
2018-11-12T10:13:39.169Z,87.48
2018-11-12T10:14:38.780Z,86.43
2018-11-12T10:15:39.261Z,85.66
2018-11-12T10:16:40.264Z,86.43
2018-11-12T10:17:38.358Z,87.57
2018-11-12T10:18:36.380Z,87.09
2018-11-12T10:19:36.446Z,86.52
2018-11-12T10:20:36.468Z,87.09
2018-11-12T10:21:36.517Z,86.33
2018-11-12T10:22:36.565Z,86.43
2018-11-12T10:23:36.588Z,85.66
2018-11-12T10:24:36.630Z,84.99
2018-11-12T10:25:36.673Z,84.23
2018-11-12T10:26:36.717Z,85.38
2018-11-12T10:27:36.762Z,84.03
2018-11-12T10:28:36.800Z,84.32
2018-11-12T10:29:36.842Z,83.75
2018-11-12T10:30:36.881Z,83.46
2018-11-12T10:31:36.936Z,82.98
2018-11-12T10:32:36.971Z,83.84
2018-11-12T10:33:37.036Z,83.75
2018-11-12T10:34:37.048Z,83.37
2018-11-12T10:35:37.103Z,84.99
2018-11-12T10:36:37.142Z,86.61
2018-11-12T10:37:37.177Z,87.29
2018-11-12T10:38:37.226Z,88.91
2018-11-12T10:39:37.266Z,87.66
2018-11-12T10:40:37.308Z,87.48
2018-11-12T10:41:37.348Z,87.00
2018-11-12T10:42:37.411Z,86.52
2018-11-12T10:43:37.427Z,86.14
2018-11-12T10:44:37.470Z,85.18
2018-11-12T10:45:37.513Z,86.52
2018-11-12T10:46:37.553Z,85.66
2018-11-12T10:47:37.593Z,85.75
2018-11-12T10:48:37.635Z,86.52
2018-11-12T10:49:37.678Z,86.80
2018-11-12T10:50:37.718Z,86.23
2018-11-12T10:51:37.760Z,87.09
2018-11-12T10:52:37.810Z,86.14
2018-11-12T10:53:37.854Z,86.23
2018-11-12T10:54:37.976Z,87.19
2018-11-12T10:55:38.037Z,86.43
2018-11-12T10:56:38.095Z,85.57
2018-11-12T10:57:38.047Z,85.47
2018-11-12T10:58:38.102Z,85.47
2018-11-12T10:59:38.163Z,84.99
2018-11-12T11:00:38.143Z,85.38
2018-11-12T11:01:38.179Z,85.94
2018-11-12T11:02:38.220Z,86.43
2018-11-12T11:03:38.300Z,85.57
2018-11-12T11:04:38.302Z,85.09
2018-11-12T11:05:38.348Z,84.42
2018-11-12T11:06:38.391Z,84.42
2018-11-12T11:07:38.433Z,84.89
2018-11-12T11:08:38.474Z,87.19
2018-11-12T11:09:38.511Z,86.61
2018-11-12T11:10:38.555Z,86.52
2018-11-12T11:11:38.594Z,87.57
2018-11-12T11:12:38.636Z,88.15
2018-11-12T11:13:38.724Z,88.91
2018-11-12T11:14:38.720Z,87.15
2018-11-12T11:15:38.897Z,87.38
2018-11-12T11:16:38.803Z,87.86
2018-11-12T11:17:38.845Z,87.57
2018-11-12T11:18:38.886Z,88.39
2018-11-12T11:19:38.946Z,89.06
2018-11-12T11:20:38.975Z,88.58
2018-11-12T11:21:39.017Z,87.57
2018-11-12T11:22:39.058Z,90.39
2018-11-12T11:23:39.096Z,89.20
2018-11-12T11:24:39.136Z,89.10
2018-11-12T11:25:39.199Z,90.44
2018-11-12T11:26:39.277Z,90.92
2018-11-12T11:27:39.275Z,90.16
2018-11-12T11:28:39.303Z,90.73
2018-11-12T11:29:39.350Z,91.02
2018-11-12T11:30:39.385Z,91.20
2018-11-12T11:31:39.483Z,91.02
2018-11-12T11:32:39.481Z,91.11
2018-11-12T11:33:39.510Z,91.11
2018-11-12T11:34:39.561Z,91.20
2018-11-12T11:35:39.595Z,91.11
2018-11-12T11:36:39.636Z,91.78
2018-11-12T11:37:39.683Z,93.21
2018-11-12T11:38:39.721Z,92.54
2018-11-12T11:39:39.770Z,91.88
2018-11-12T11:40:39.824Z,91.39
2018-11-12T11:41:39.847Z,91.88
2018-11-12T11:42:39.886Z,90.53
2018-11-12T11:43:39.929Z,90.82
2018-11-12T11:44:39.969Z,91.16
2018-11-12T11:45:40.012Z,91.44
2018-11-12T11:46:40.053Z,91.35
2018-11-12T11:47:40.225Z,91.06
2018-11-12T11:48:40.192Z,92.40
2018-11-12T11:49:40.177Z,90.87
2018-11-12T11:50:40.253Z,91.44
2018-11-12T11:51:40.310Z,91.25
2018-11-12T11:52:40.311Z,92.49
2018-11-12T11:53:40.348Z,91.06
2018-11-12T11:54:40.396Z,90.20
2018-11-12T11:55:40.433Z,91.25
2018-11-12T11:56:40.686Z,91.44
2018-11-12T11:57:40.680Z,92.78
2018-11-12T11:58:40.554Z,91.63
2018-11-12T11:59:40.595Z,90.20
2018-11-12T12:00:40.638Z,91.73
2018-11-12T12:01:40.768Z,90.01
2018-11-12T12:02:40.752Z,90.77
2018-11-12T12:03:40.770Z,90.67
2018-11-12T12:04:40.810Z,90.20
2018-11-12T12:05:40.851Z,90.87
2018-11-12T12:06:40.896Z,90.77
2018-11-12T12:07:40.935Z,91.53
2018-11-12T12:08:41.032Z,90.58
2018-11-12T12:09:41.019Z,90.58
2018-11-12T12:10:41.057Z,91.35
2018-11-12T12:11:41.100Z,91.53
2018-11-12T12:12:41.143Z,92.40
2018-11-12T12:13:41.187Z,91.16
2018-11-12T12:14:41.226Z,91.63
2018-11-12T12:15:41.293Z,90.67
2018-11-12T12:16:41.763Z,90.01
2018-11-12T12:17:41.406Z,92.30
2018-11-12T12:18:41.454Z,92.69
2018-11-12T12:19:41.439Z,91.53
2018-11-12T12:20:41.479Z,91.53
2018-11-12T12:21:41.520Z,91.83
2018-11-12T12:22:41.569Z,91.53
2018-11-12T12:23:41.652Z,91.25
2018-11-12T12:24:41.816Z,91.06
2018-11-12T12:25:41.770Z,91.25
2018-11-12T12:26:41.729Z,90.96
2018-11-12T12:27:41.772Z,90.39
2018-11-12T12:28:41.813Z,90.87
2018-11-12T12:29:41.855Z,90.58
2018-11-12T12:30:41.897Z,91.25
2018-11-12T12:31:41.999Z,91.53
2018-11-12T12:32:42.029Z,90.53
2018-11-12T12:33:42.038Z,91.20
2018-11-12T12:34:42.075Z,92.49
2018-11-12T12:35:42.140Z,91.20
2018-11-12T12:36:42.237Z,90.10
2018-11-12T12:37:42.258Z,89.95
2018-11-12T12:38:42.234Z,89.58
2018-11-12T12:39:42.276Z,89.00
2018-11-12T12:40:42.327Z,89.86
2018-11-12T12:41:42.361Z,90.91
2018-11-12T12:42:42.411Z,91.11
2018-11-12T12:43:42.444Z,91.49
2018-11-12T12:44:42.548Z,90.72
2018-11-12T12:45:42.731Z,90.82
2018-11-12T12:46:42.581Z,91.49
2018-11-12T12:47:42.616Z,91.11
2018-11-12T12:48:42.657Z,90.34
2018-11-12T12:49:42.757Z,90.91
2018-11-12T12:50:42.740Z,90.82
2018-11-12T12:51:42.782Z,90.15
2018-11-12T12:52:42.826Z,89.62
2018-11-12T12:53:42.866Z,91.92